Drakesburg, Ohio
Current Conditions -  °F | °C
As of 1:00 AM on Thursday 27 Nov 2014 (Local Time) from KPOV Reporting Station
Overcast Overcast  
Wind Chill: 30°   Ceiling: 4900
Heat Index: 30°   Visibility: 10mi
Dew Point: 25°   Wind: 0mph
Humidity: 80%   Direction: NA
Pressure: 30"   Gusts: NA
Location:  41.2385°N, 81.0761°W
Report Text: KPOV 270600Z AUTO 00000KT 10SM OVC049 M01/M04 A3000 RMK AO2 T10111041 10013 21011 400331015
Loading
Personal Weather Stations






























Interactive Weather Map New forecast layout! Learn more

10-Day Weather Forecast

Advertisements
Track Severe Weather on mobile